Time;durP1;ratioP1;P1;durP2;ratioP2;P2;SDS_P1;SDS_P2;PMS_P1;PMS_P2;Temp;Humidity;BMP_temperature;BMP_pressure;BME280_temperature;BME280_humidity;BME280_pressure;Samples;Min_cycle;Max_cycle;Signal;HPM_P1;HPM_P2
2023/01/11 00:03:33;;;;;;;0.70;0.70;;;;;;;8.57;55.63;100593.66;18424341;32;20089;-58
2023/01/11 00:13:38;;;;;;;0.60;0.60;;;;;;;8.73;55.42;100594.66;18424618;32;20522;-58
2023/01/11 00:23:41;;;;;;;0.80;0.80;;;;;;;8.70;55.47;100585.09;18423660;32;20346;-58
2023/01/11 00:33:45;;;;;;;0.65;0.65;;;;;;;8.50;56.07;100602.22;18424429;32;20227;-58
2023/01/11 00:54:11;;;;;;;0.70;0.70;;;;;;;8.56;55.75;100592.78;18422015;32;20360;-58
2023/01/11 01:04:14;;;;;;;0.60;0.60;;;;;;;8.30;56.36;100608.09;18421907;32;20140;-58
2023/01/11 01:14:28;;;;;;;0.70;0.70;;;;;;;8.27;56.63;100615.88;18421597;32;20445;-58
2023/01/11 01:24:32;;;;;;;0.60;0.60;;;;;;;8.01;56.87;100626.84;18421162;32;20132;-58
2023/01/11 01:34:37;;;;;;;0.73;0.73;;;;;;;7.47;57.77;100646.09;18420814;32;20428;-58
2023/01/11 01:44:58;;;;;;;0.60;0.60;;;;;;;7.29;58.92;100638.03;18421305;32;20489;-58
2023/01/11 01:55:07;;;;;;;1.98;1.87;;;;;;;7.31;59.10;100647.59;18419622;32;20402;-58
2023/01/11 02:05:12;;;;;;;0.70;0.70;;;;;;;6.97;60.12;100666.91;18412865;32;20098;-58
2023/01/11 02:15:18;;;;;;;0.52;0.52;;;;;;;7.03;59.71;100677.41;18355643;32;20104;-58
2023/01/11 02:25:55;;;;;;;0.70;0.70;;;;;;;6.87;60.18;100661.56;18354898;32;20119;-57
2023/01/11 02:36:08;;;;;;;0.70;0.70;;;;;;;6.58;60.38;100677.50;18354546;32;20093;-58
2023/01/11 02:46:13;;;;;;;0.70;0.70;;;;;;;6.10;61.17;100692.13;18354100;32;20109;-58
2023/01/11 02:56:20;;;;;;;0.62;0.62;;;;;;;6.05;61.20;100698.91;18353841;32;20094;-58
2023/01/11 03:06:27;;;;;;;1.87;1.77;;;;;;;5.59;61.63;100686.66;18354326;32;20200;-58
2023/01/11 03:16:37;;;;;;;0.70;0.70;;;;;;;5.31;63.33;100686.03;18353170;32;20093;-58
2023/01/11 03:26:49;;;;;;;0.70;0.70;;;;;;;5.17;64.52;100687.41;18353406;32;20090;-57
2023/01/11 03:36:56;;;;;;;1.50;1.40;;;;;;;4.33;66.91;100714.56;18352061;32;20089;-58
2023/01/11 03:47:03;;;;;;;0.60;0.60;;;;;;;5.22;63.85;100724.66;18351723;31;20074;-58
2023/01/11 03:57:11;;;;;;;0.60;0.60;;;;;;;4.51;64.70;100740.03;18350901;31;20113;-58
2023/01/11 04:07:15;;;;;;;0.68;0.68;;;;;;;4.67;63.87;100735.28;18350525;32;20119;-57
2023/01/11 04:17:19;;;;;;;0.62;0.62;;;;;;;4.74;63.98;100726.84;18350101;31;20094;-57
2023/01/11 04:27:23;;;;;;;0.55;0.55;;;;;;;4.70;64.61;100712.09;18349539;32;20141;-57
2023/01/11 04:37:27;;;;;;;0.80;0.80;;;;;;;4.56;64.44;100717.78;18359854;32;20346;-58
2023/01/11 04:47:31;;;;;;;0.80;0.80;;;;;;;4.49;63.24;100746.88;18358883;32;20488;-58
2023/01/11 04:57:35;;;;;;;1.27;1.20;;;;;;;4.18;64.59;100730.50;18358368;31;20486;-58
2023/01/11 05:07:39;;;;;;;4.68;3.00;;;;;;;4.11;64.64;100786.25;18357850;32;20161;-57
2023/01/11 05:17:45;;;;;;;2.28;2.15;;;;;;;3.80;65.73;100781.88;18357286;32;20098;-57
2023/01/11 05:27:48;;;;;;;1.55;1.52;;;;;;;3.93;65.80;100765.03;18357228;32;20176;-57
2023/01/11 05:37:52;;;;;;;5.93;3.08;;;;;;;3.68;66.63;100769.44;18356865;32;20089;-57
2023/01/11 05:47:56;;;;;;;0.77;0.77;;;;;;;3.80;65.19;100769.81;18355942;32;20101;-57
2023/01/11 05:58:00;;;;;;;0.60;0.60;;;;;;;3.68;65.40;100772.87;18356026;31;20137;-57
2023/01/11 06:08:04;;;;;;;0.95;0.95;;;;;;;3.58;65.12;100763.97;18356449;32;20115;-57
2023/01/11 06:18:08;;;;;;;0.70;0.70;;;;;;;3.55;65.19;100763.84;18385188;31;20165;-57
2023/01/11 06:28:12;;;;;;;0.70;0.70;;;;;;;3.41;65.03;100759.97;18356851;32;20142;-57
2023/01/11 06:38:18;;;;;;;0.77;0.77;;;;;;;3.41;65.20;100766.00;18357618;32;20104;-57
2023/01/11 06:48:22;;;;;;;0.80;0.80;;;;;;;3.40;65.42;100778.84;18373654;32;20401;-57
2023/01/11 06:58:27;;;;;;;1.67;1.60;;;;;;;3.38;65.66;100771.06;18446692;31;20354;-57
2023/01/11 07:08:31;;;;;;;0.65;0.65;;;;;;;3.49;67.14;100771.41;18624920;31;20102;-57
2023/01/11 07:18:36;;;;;;;0.73;0.73;;;;;;;3.70;67.58;100802.22;18641796;31;20141;-57
2023/01/11 07:28:39;;;;;;;4.12;2.45;;;;;;;4.94;65.68;100812.75;18689729;31;20119;-57
2023/01/11 07:38:44;;;;;;;1.35;1.15;;;;;;;5.99;63.45;100833.53;18647163;31;20104;-57
2023/01/11 07:48:48;;;;;;;8.55;1.60;;;;;;;6.95;60.31;100843.41;18689066;31;20091;-57
2023/01/11 07:58:53;;;;;;;1.00;1.00;;;;;;;7.64;58.46;100843.78;18597951;31;20108;-57
2023/01/11 08:08:56;;;;;;;0.60;0.60;;;;;;;7.36;58.57;100830.31;18358533;32;20151;-57
2023/01/11 08:19:01;;;;;;;0.70;0.70;;;;;;;7.20;59.68;100829.19;18362327;32;20104;-57
2023/01/11 08:29:04;;;;;;;0.50;0.50;;;;;;;7.13;60.36;100826.44;18361874;32;20106;-57
2023/01/11 08:39:09;;;;;;;1.65;1.55;;;;;;;6.89;62.14;100854.53;18402141;32;20089;-57
2023/01/11 08:49:12;;;;;;;0.75;0.75;;;;;;;7.00;61.56;100849.56;18425009;32;20455;-57
2023/01/11 08:59:18;;;;;;;1.52;1.42;;;;;;;7.47;60.32;100861.69;18423603;31;20133;-57
2023/01/11 09:09:22;;;;;;;0.70;0.70;;;;;;;7.53;60.59;100873.91;18425238;32;20107;-57
2023/01/11 09:19:27;;;;;;;0.60;0.60;;;;;;;6.11;64.72;100876.19;18423355;32;20126;-58
2023/01/11 09:29:30;;;;;;;0.65;0.65;;;;;;;7.29;63.00;100871.75;18403079;32;20153;-57
2023/01/11 09:39:36;;;;;;;2.28;2.17;;;;;;;8.85;58.28;100856.84;18381953;32;20097;-57
2023/01/11 09:49:42;;;;;;;1.25;1.17;;;;;;;9.18;59.92;100837.22;18357095;31;20098;-57
2023/01/11 09:59:51;;;;;;;0.75;0.65;;;;;;;9.91;55.85;100826.59;18354857;32;20433;-57
2023/01/11 10:10:02;;;;;;;0.65;0.65;;;;;;;9.24;56.99;100826.87;18356078;32;20514;-57
2023/01/11 10:20:34;;;;;;;0.50;0.50;;;;;;;8.99;58.27;100813.59;18356493;31;20161;-57
2023/01/11 10:30:54;;;;;;;0.50;0.50;;;;;;;10.07;55.95;100811.91;18356660;32;20128;-58
2023/01/11 10:41:07;;;;;;;0.50;0.50;;;;;;;11.12;53.31;100787.13;18369523;32;20169;-57
2023/01/11 10:51:23;;;;;;;0.50;0.50;;;;;;;11.50;51.58;100779.34;18381803;32;20107;-57
2023/01/11 11:01:44;;;;;;;0.45;0.45;;;;;;;11.64;50.44;100791.53;18382845;32;20085;-57
2023/01/11 11:11:51;;;;;;;0.57;0.57;;;;;;;11.05;51.50;100794.09;18359767;32;20108;-58
2023/01/11 11:21:56;;;;;;;0.40;0.40;;;;;;;10.90;52.84;100774.03;18353365;32;20429;-58
2023/01/11 11:32:00;;;;;;;0.80;0.80;;;;;;;11.72;48.50;100762.78;18354870;32;20093;-58
2023/01/11 11:42:16;;;;;;;0.40;0.40;;;;;;;11.37;51.87;100743.59;18353106;32;20194;-58
2023/01/11 11:52:19;;;;;;;0.50;0.50;;;;;;;12.07;50.58;100730.44;18365051;32;20401;-57
2023/01/11 12:02:29;;;;;;;2.28;2.05;;;;;;;10.87;52.52;100735.72;18350770;32;20359;-57
2023/01/11 12:12:33;;;;;;;0.45;0.45;;;;;;;11.02;52.05;100734.88;18363122;32;20107;-58
2023/01/11 12:22:37;;;;;;;0.62;0.60;;;;;;;11.60;47.72;100737.50;18399803;32;20157;-57
2023/01/11 12:33:00;;;;;;;0.45;0.45;;;;;;;12.09;46.60;100749.63;18410483;32;20116;-58
2023/01/11 12:43:24;;;;;;;0.60;0.60;;;;;;;10.91;47.57;100750.56;18376044;32;20119;-58
2023/01/11 12:53:44;;;;;;;0.60;0.60;;;;;;;10.90;48.54;100756.63;18376202;32;20093;-58
2023/01/11 13:04:13;;;;;;;0.50;0.50;;;;;;;10.81;47.81;100748.75;18367169;31;20149;-58
2023/01/11 13:14:39;;;;;;;0.60;0.60;;;;;;;11.47;47.27;100750.56;18383421;32;20105;-58
2023/01/11 13:24:46;;;;;;;0.40;0.40;;;;;;;12.10;45.78;100737.44;18416115;32;20243;-58
2023/01/11 13:34:53;;;;;;;0.50;0.50;;;;;;;11.84;45.24;100752.28;18423028;32;20451;-58
2023/01/11 13:45:00;;;;;;;0.40;0.40;;;;;;;11.76;46.20;100744.47;18422704;32;20174;-58
2023/01/11 13:55:08;;;;;;;0.32;0.32;;;;;;;12.34;45.99;100760.03;18421223;32;20104;-58
2023/01/11 14:05:24;;;;;;;0.50;0.50;;;;;;;12.27;45.62;100771.38;18360507;32;20097;-58
2023/01/11 14:15:31;;;;;;;0.40;0.40;;;;;;;12.27;46.26;100764.44;18375201;32;20176;-58
2023/01/11 14:25:41;;;;;;;0.50;0.50;;;;;;;12.19;46.83;100764.47;18417191;32;20115;-58
2023/01/11 14:36:19;;;;;;;0.50;0.50;;;;;;;12.21;46.46;100756.59;18357733;32;20212;-58
2023/01/11 14:46:47;;;;;;;1.00;1.00;;;;;;;11.85;48.25;100768.84;18410450;32;20160;-58
2023/01/11 14:56:54;;;;;;;0.50;0.50;;;;;;;11.61;49.51;100740.09;18381629;31;20088;-60
2023/01/11 15:06:59;;;;;;;0.55;0.55;;;;;;;11.31;50.42;100752.31;18416486;32;20119;-58
2023/01/11 15:27:26;;;;;;;0.60;0.60;;;;;;;10.64;51.74;100747.00;18419123;32;20771;-58
2023/01/11 15:37:42;;;;;;;0.60;0.60;;;;;;;10.19;53.50;100753.72;18383683;32;20448;-58
2023/01/11 15:48:18;;;;;;;0.70;0.70;;;;;;;9.65;54.69;100764.69;18417624;32;20491;-58
2023/01/11 15:58:35;;;;;;;0.60;0.60;;;;;;;9.15;56.15;100756.47;18414020;32;20472;-58
2023/01/11 16:08:48;;;;;;;1.67;1.58;;;;;;;8.73;56.94;100756.03;18417116;32;20121;-58
2023/01/11 16:18:54;;;;;;;0.93;0.90;;;;;;;8.32;57.93;100768.53;18417906;32;20093;-58
2023/01/11 16:28:58;;;;;;;2.17;1.92;;;;;;;7.93;59.05;100769.75;18422056;32;20104;-57
2023/01/11 16:39:04;;;;;;;0.80;0.80;;;;;;;7.69;59.33;100758.13;18425735;32;20115;-58
2023/01/11 16:49:12;;;;;;;0.60;0.60;;;;;;;7.23;60.24;100776.44;18384648;32;20093;-57
2023/01/11 16:59:23;;;;;;;1.35;1.25;;;;;;;7.07;60.19;100767.50;18441297;31;20142;-58
2023/01/11 17:09:28;;;;;;;1.08;1.08;;;;;;;6.77;60.36;100779.91;18694138;31;20109;-57
2023/01/11 17:19:33;;;;;;;1.75;1.15;;;;;;;6.57;60.69;100783.84;18684878;31;20107;-57
2023/01/11 17:29:40;;;;;;;1.42;1.42;;;;;;;6.39;61.19;100780.88;18694715;31;20092;-57
2023/01/11 17:39:46;;;;;;;0.70;0.70;;;;;;;6.18;61.46;100789.09;18693278;31;20436;-57
2023/01/11 17:49:51;;;;;;;2.37;2.08;;;;;;;5.81;62.09;100795.97;18693100;31;20091;-58
2023/01/11 18:00:17;;;;;;;0.60;0.60;;;;;;;5.29;63.74;100804.19;18554625;31;20111;-58
2023/01/11 18:10:23;;;;;;;1.35;1.35;;;;;;;5.39;62.88;100818.25;18358153;32;20081;-57
2023/01/11 18:20:35;;;;;;;1.85;1.75;;;;;;;5.23;62.72;100814.41;18357575;32;20097;-59
2023/01/11 18:30:41;;;;;;;0.60;0.60;;;;;;;4.97;63.78;100817.16;18356708;32;20070;-58
2023/01/11 18:40:45;;;;;;;1.20;1.17;;;;;;;4.78;63.66;100827.00;18357133;32;20082;-57
2023/01/11 18:50:50;;;;;;;1.15;1.12;;;;;;;4.64;64.17;100828.28;18354768;32;20093;-57
2023/01/11 19:00:53;;;;;;;12.20;2.37;;;;;;;4.78;63.19;100824.41;18355957;32;20093;-57
2023/01/11 19:10:58;;;;;;;0.88;0.88;;;;;;;4.53;63.70;100833.16;18355116;32;20102;-57
2023/01/11 19:21:02;;;;;;;0.68;0.68;;;;;;;4.54;63.77;100856.47;18354171;32;20096;-57
2023/01/11 19:31:10;;;;;;;1.65;1.35;;;;;;;4.41;63.99;100846.59;18393026;32;20101;-57
2023/01/11 19:41:15;;;;;;;1.45;1.45;;;;;;;4.28;63.55;100868.59;18417249;32;20384;-57
2023/01/11 19:51:20;;;;;;;1.77;1.67;;;;;;;3.92;64.31;100883.00;18417030;32;20090;-57
2023/01/11 20:01:23;;;;;;;2.67;1.65;;;;;;;3.83;64.78;100880.09;18411661;32;225875;-57
2023/01/11 20:11:29;;;;;;;0.80;0.80;;;;;;;3.48;65.24;100880.66;18425693;32;20125;-57
2023/01/11 20:21:33;;;;;;;1.17;1.15;;;;;;;3.68;64.29;100889.06;18426092;32;20489;-58
2023/01/11 20:31:37;;;;;;;1.62;1.52;;;;;;;3.54;64.89;100869.66;18417708;32;20146;-57
2023/01/11 20:41:47;;;;;;;6.62;4.62;;;;;;;3.46;64.87;100883.19;18388355;32;20084;-57
2023/01/11 20:51:52;;;;;;;3.20;2.95;;;;;;;3.52;64.78;100886.81;18424583;32;20184;-59
2023/01/11 21:01:55;;;;;;;4.05;3.75;;;;;;;3.27;65.09;100896.28;18531091;31;20114;-57
2023/01/11 21:11:59;;;;;;;2.70;2.60;;;;;;;3.27;65.09;100909.16;18562893;32;20092;-57
2023/01/11 21:22:02;;;;;;;5.15;4.75;;;;;;;3.32;64.31;100894.75;18562574;32;20166;-57
2023/01/11 21:32:07;;;;;;;6.12;3.10;;;;;;;3.12;64.56;100909.50;18562124;32;20111;-57
2023/01/11 21:42:10;;;;;;;0.70;0.70;;;;;;;3.08;65.12;100921.41;18562060;32;20180;-57
2023/01/11 21:52:15;;;;;;;1.45;1.45;;;;;;;3.08;64.88;100936.88;18561703;32;20403;-58
2023/01/11 22:02:18;;;;;;;0.82;0.82;;;;;;;2.95;65.29;100945.00;18630217;31;20170;-57
2023/01/11 22:12:22;;;;;;;0.60;0.60;;;;;;;2.86;64.61;100948.97;18687724;31;20092;-57
2023/01/11 22:22:26;;;;;;;0.98;0.98;;;;;;;2.68;65.56;100943.13;18692892;31;20095;-57
2023/01/11 22:32:31;;;;;;;4.32;4.00;;;;;;;2.93;65.24;100950.09;18693414;31;20432;-57
2023/01/11 22:42:34;;;;;;;2.12;2.03;;;;;;;2.86;65.00;100945.50;18693146;31;20451;-57
2023/01/11 22:52:39;;;;;;;0.55;0.55;;;;;;;3.02;64.58;100953.00;18692960;31;20127;-57
2023/01/11 23:02:42;;;;;;;2.67;2.35;;;;;;;3.00;64.39;100954.66;18692394;31;20110;-57
2023/01/11 23:23:07;;;;;;;23.42;5.93;;;;;;;2.99;65.58;100958.06;18691762;31;20127;-57
2023/01/11 23:33:12;;;;;;;1.00;1.00;;;;;;;2.92;67.24;100954.34;18690606;31;20118;-57
2023/01/11 23:43:15;;;;;;;0.70;0.70;;;;;;;3.18;66.97;100938.97;18689692;31;20109;-57
2023/01/11 23:53:19;;;;;;;2.33;1.92;;;;;;;3.28;66.63;100937.63;18690093;31;20106;-57
